Time;durP1;ratioP1;P1;durP2;ratioP2;P2;SDS_P1;SDS_P2;PMS_P1;PMS_P2;Temp;Humidity;BMP_temperature;BMP_pressure;BME280_temperature;BME280_humidity;BME280_pressure;Samples;Min_cycle;Max_cycle;Signal;HPM_P1;HPM_P2
2021/12/06 00:04:31;;;;;;;32.47;21.23;;;;;;;0.21;100.00;99724.78;20984243;28;20231;-66
2021/12/06 00:14:38;;;;;;;31.83;19.97;;;;;;;0.22;100.00;99716.00;20991677;28;20223;-67
2021/12/06 00:24:41;;;;;;;33.60;22.07;;;;;;;0.21;100.00;99727.41;20997317;28;20265;-67
2021/12/06 00:34:45;;;;;;;28.83;20.07;;;;;;;0.25;100.00;99733.38;20998051;28;20230;-65
2021/12/06 00:44:48;;;;;;;29.17;19.10;;;;;;;0.27;100.00;99737.69;20996146;28;20258;-67
2021/12/06 00:54:53;;;;;;;33.37;22.47;;;;;;;0.26;100.00;99743.84;20996068;28;20222;-65
2021/12/06 01:04:56;;;;;;;30.77;20.27;;;;;;;0.22;100.00;99731.75;20995509;28;20862;-64
2021/12/06 01:15:00;;;;;;;32.03;21.60;;;;;;;0.19;100.00;99726.59;20976842;28;20301;-64
2021/12/06 01:25:14;;;;;;;33.33;21.57;;;;;;;0.17;100.00;99728.41;20992921;28;20223;-64
2021/12/06 01:45:39;;;;;;;26.90;17.77;;;;;;;0.16;100.00;99765.16;20991267;28;20219;-65
2021/12/06 01:55:45;;;;;;;26.90;17.63;;;;;;;0.21;100.00;99771.13;20991322;28;20338;-64
2021/12/06 02:05:49;;;;;;;27.83;17.77;;;;;;;0.22;100.00;99773.72;20971951;28;20230;-58
2021/12/06 02:15:57;;;;;;;28.37;16.50;;;;;;;0.27;100.00;99766.53;20987883;28;20223;-66
2021/12/06 02:26:07;;;;;;;25.10;16.30;;;;;;;0.31;100.00;99767.31;20905787;28;20730;-64
2021/12/06 02:36:11;;;;;;;26.03;15.57;;;;;;;0.30;100.00;99766.47;20904875;28;20736;-59
2021/12/06 02:46:16;;;;;;;25.03;16.63;;;;;;;0.26;100.00;99775.31;20904241;28;20635;-64
2021/12/06 02:56:32;;;;;;;22.63;14.73;;;;;;;0.25;100.00;99789.34;20902598;28;20224;-65
2021/12/06 03:06:37;;;;;;;21.70;14.43;;;;;;;0.29;100.00;99795.38;20902482;28;20227;-65
2021/12/06 03:16:41;;;;;;;26.10;16.47;;;;;;;0.22;100.00;99776.34;20901742;28;20251;-63
2021/12/06 03:26:46;;;;;;;22.60;14.90;;;;;;;0.18;100.00;99776.47;20901323;28;20219;-65
2021/12/06 03:36:49;;;;;;;26.07;15.77;;;;;;;0.14;100.00;99775.69;20902198;28;20227;-66
2021/12/06 03:47:10;;;;;;;19.33;13.87;;;;;;;0.09;100.00;99777.63;20905753;28;20224;-64
2021/12/06 03:57:14;;;;;;;19.43;13.70;;;;;;;0.04;100.00;99791.78;20916403;28;20632;-67
2021/12/06 04:07:22;;;;;;;17.27;13.37;;;;;;;0.04;100.00;99800.50;20899885;28;20261;-65
2021/12/06 04:17:26;;;;;;;16.63;12.73;;;;;;;0.06;100.00;99814.44;20916698;28;20219;-65
2021/12/06 04:27:30;;;;;;;15.80;11.93;;;;;;;0.08;100.00;99838.84;20914834;28;20220;-65
2021/12/06 04:37:34;;;;;;;15.53;11.63;;;;;;;0.11;100.00;99858.91;20913833;28;20254;-58
2021/12/06 04:47:38;;;;;;;15.97;11.87;;;;;;;0.17;100.00;99871.81;20914786;28;20228;-66
2021/12/06 04:57:45;;;;;;;13.80;10.47;;;;;;;0.22;100.00;99898.78;20911835;28;20231;-65
2021/12/06 05:07:53;;;;;;;12.70;9.70;;;;;;;0.22;100.00;99889.16;20894675;28;20265;-66
2021/12/06 05:17:56;;;;;;;14.17;10.33;;;;;;;0.29;100.00;99893.31;20912638;28;20223;-66
2021/12/06 05:28:00;;;;;;;18.00;12.80;;;;;;;0.19;100.00;99889.25;20909351;28;20223;-65
2021/12/06 05:38:05;;;;;;;19.50;13.60;;;;;;;0.14;100.00;99871.91;20907503;28;20243;-62
2021/12/06 05:48:08;;;;;;;18.57;13.40;;;;;;;0.11;100.00;99865.00;20909940;28;20238;-66
2021/12/06 05:58:14;;;;;;;20.43;14.13;;;;;;;0.07;100.00;99852.88;20909370;28;20650;-67
2021/12/06 06:08:17;;;;;;;20.87;15.10;;;;;;;0.04;100.00;99858.19;20900391;28;20721;-67
2021/12/06 06:18:20;;;;;;;22.43;15.40;;;;;;;0.05;100.00;99873.03;20889898;28;20310;-66
2021/12/06 06:28:24;;;;;;;21.37;14.67;;;;;;;0.05;100.00;99901.88;20880088;28;20596;-66
2021/12/06 06:38:27;;;;;;;21.33;15.50;;;;;;;0.02;100.00;99937.81;20856129;28;20250;-61
2021/12/06 06:48:31;;;;;;;20.33;14.03;;;;;;;0.02;100.00;99957.03;20899706;28;20700;-58
2021/12/06 06:58:34;;;;;;;21.23;15.23;;;;;;;0.01;100.00;99989.41;20901244;28;20368;-58
2021/12/06 07:08:38;;;;;;;23.13;16.47;;;;;;;0.02;100.00;99980.66;20904017;28;20231;-59
2021/12/06 07:18:41;;;;;;;27.20;18.07;;;;;;;-0.01;100.00;99980.75;20903625;28;20230;-68
2021/12/06 07:28:46;;;;;;;27.27;17.10;;;;;;;0.00;100.00;99964.13;20901886;28;20655;-58
2021/12/06 07:38:51;;;;;;;27.87;18.37;;;;;;;0.05;100.00;99975.34;20902347;28;20303;-67
2021/12/06 07:48:54;;;;;;;29.73;18.00;;;;;;;0.07;100.00;99957.78;20901311;28;20299;-67
2021/12/06 07:58:58;;;;;;;28.43;18.03;;;;;;;0.04;100.00;99983.25;20899924;28;20230;-67
2021/12/06 08:09:01;;;;;;;36.10;22.70;;;;;;;-0.03;100.00;99982.56;20899501;28;20314;-67
2021/12/06 08:19:05;;;;;;;35.60;20.90;;;;;;;-0.02;100.00;99985.16;20975014;28;20719;-67
2021/12/06 08:29:12;;;;;;;31.07;19.57;;;;;;;0.00;100.00;99999.06;20982580;28;20223;-66
2021/12/06 08:39:15;;;;;;;31.80;21.40;;;;;;;-0.03;100.00;100003.53;20996780;28;20233;-67
2021/12/06 08:49:19;;;;;;;31.93;20.30;;;;;;;-0.01;100.00;100012.22;20995481;28;20330;-68
2021/12/06 08:59:22;;;;;;;30.43;20.70;;;;;;;-0.04;100.00;100049.03;20996095;28;20227;-67
2021/12/06 09:09:27;;;;;;;28.87;20.30;;;;;;;-0.05;100.00;100047.28;20994975;28;20250;-66
2021/12/06 09:19:33;;;;;;;34.67;23.30;;;;;;;-0.07;100.00;100060.44;20994135;28;20249;-67
2021/12/06 09:29:37;;;;;;;33.43;22.83;;;;;;;-0.01;100.00;100057.69;20992061;28;20234;-66
2021/12/06 09:39:41;;;;;;;37.13;24.50;;;;;;;-0.04;100.00;100064.75;20993111;28;20234;-64
2021/12/06 09:49:44;;;;;;;33.63;22.33;;;;;;;0.00;100.00;100055.94;20990096;28;20235;-64
2021/12/06 09:59:47;;;;;;;37.43;24.40;;;;;;;0.02;100.00;100050.63;20989952;28;20594;-60
2021/12/06 10:09:52;;;;;;;39.80;25.60;;;;;;;-0.01;100.00;100035.84;20990467;28;20310;-59
2021/12/06 10:19:56;;;;;;;39.77;25.57;;;;;;;-0.12;100.00;100051.00;20989832;28;20664;-63
2021/12/06 10:30:10;;;;;;;37.63;24.03;;;;;;;-0.15;100.00;100038.81;20905706;28;20235;-63
2021/12/06 10:40:22;;;;;;;31.67;21.20;;;;;;;-0.12;100.00;100040.50;20905627;28;20251;-63
2021/12/06 10:50:26;;;;;;;35.37;23.90;;;;;;;-0.15;100.00;100062.41;20903730;28;20725;-65
2021/12/06 11:00:38;;;;;;;33.33;22.53;;;;;;;-0.10;100.00;100075.38;20903524;28;20298;-64
2021/12/06 11:10:55;;;;;;;37.17;23.90;;;;;;;-0.22;100.00;100065.19;20903618;28;20239;-64
2021/12/06 11:20:58;;;;;;;33.83;23.43;;;;;;;-0.16;100.00;100059.81;20903004;28;20223;-66
2021/12/06 11:31:05;;;;;;;36.40;23.63;;;;;;;-0.17;100.00;100061.59;20884438;28;20254;-63
2021/12/06 11:41:12;;;;;;;35.87;23.63;;;;;;;-0.19;100.00;100058.13;20902020;28;20323;-57
2021/12/06 11:51:18;;;;;;;43.37;27.23;;;;;;;-0.17;100.00;100058.09;20900431;28;20236;-58
2021/12/06 12:01:38;;;;;;;50.23;29.73;;;;;;;-0.30;100.00;100057.53;20900195;28;20227;-58
2021/12/06 12:12:07;;;;;;;51.97;29.27;;;;;;;-0.28;100.00;100075.84;20911823;28;20284;-66
2021/12/06 12:22:11;;;;;;;47.23;28.60;;;;;;;-0.30;100.00;100072.41;20923191;28;20235;-66
2021/12/06 12:32:17;;;;;;;50.17;28.83;;;;;;;-0.39;100.00;100074.34;20915086;28;20621;-58
2021/12/06 12:42:20;;;;;;;52.20;30.27;;;;;;;-0.40;100.00;100067.38;20914949;28;20285;-58
2021/12/06 12:52:47;;;;;;;51.50;32.27;;;;;;;-0.45;100.00;100069.25;20913944;28;20248;-66
2021/12/06 13:02:50;;;;;;;46.10;27.87;;;;;;;-0.46;100.00;100080.63;20913183;28;20258;-64
2021/12/06 13:13:10;;;;;;;48.70;29.13;;;;;;;-0.56;100.00;100080.88;20912220;28;20223;-64
2021/12/06 13:23:14;;;;;;;50.00;30.17;;;;;;;-0.64;100.00;100096.78;20910753;28;20565;-65
2021/12/06 13:33:20;;;;;;;43.07;28.53;;;;;;;-0.65;100.00;100096.81;20909325;28;20273;-64
2021/12/06 13:43:51;;;;;;;38.77;26.10;;;;;;;-0.74;100.00;100108.38;20909674;28;20224;-65
2021/12/06 13:53:58;;;;;;;38.63;24.70;;;;;;;-0.77;100.00;100127.63;20908707;28;20231;-60
2021/12/06 14:04:06;;;;;;;36.40;24.90;;;;;;;-0.73;100.00;100131.03;20907224;28;20219;-66
2021/12/06 14:14:14;;;;;;;39.23;25.93;;;;;;;-0.72;100.00;100132.75;20979940;28;20621;-66
2021/12/06 14:24:17;;;;;;;46.03;29.30;;;;;;;-0.79;100.00;100152.13;20988788;28;20688;-64
2021/12/06 14:34:22;;;;;;;39.73;26.70;;;;;;;-0.85;100.00;100157.50;20988300;28;20705;-66
2021/12/06 14:44:33;;;;;;;41.60;26.67;;;;;;;-0.92;100.00;100151.50;20986759;28;20230;-66
2021/12/06 14:54:36;;;;;;;46.23;29.03;;;;;;;-0.95;100.00;100150.69;20986898;28;20661;-66
2021/12/06 15:04:42;;;;;;;42.60;27.83;;;;;;;-0.94;100.00;100152.41;20986280;28;20272;-63
2021/12/06 15:14:45;;;;;;;45.67;28.03;;;;;;;-0.93;100.00;100138.44;20950991;28;20633;-62
2021/12/06 15:24:53;;;;;;;48.83;28.47;;;;;;;-0.96;100.00;100148.97;20896276;28;20236;-66
2021/12/06 15:34:57;;;;;;;44.20;25.53;;;;;;;-0.90;100.00;100169.81;20900156;28;20228;-59
2021/12/06 15:45:01;;;;;;;46.13;28.37;;;;;;;-0.90;100.00;100167.19;20910708;28;20230;-63
2021/12/06 15:55:10;;;;;;;47.03;26.80;;;;;;;-0.98;100.00;100177.84;20916430;28;20231;-64
2021/12/06 16:05:23;;;;;;;41.63;25.27;;;;;;;-0.98;100.00;100187.44;20934528;28;20772;-60
2021/12/06 16:15:30;;;;;;;45.00;26.17;;;;;;;-1.06;100.00;100202.41;20941497;28;20420;-59
2021/12/06 16:25:34;;;;;;;39.20;24.00;;;;;;;-1.06;100.00;100216.38;20939377;28;20262;-58
2021/12/06 16:35:39;;;;;;;31.50;20.27;;;;;;;-1.10;100.00;100236.53;20937908;28;20222;-63
2021/12/06 16:45:44;;;;;;;41.77;24.53;;;;;;;-1.10;100.00;100236.53;20882096;28;20234;-59
2021/12/06 16:55:52;;;;;;;35.37;21.70;;;;;;;-1.15;100.00;100238.38;20887220;28;20229;-61
2021/12/06 17:05:57;;;;;;;34.33;23.83;;;;;;;-1.20;100.00;100234.94;20891712;28;20235;-59
2021/12/06 17:16:04;;;;;;;31.57;20.70;;;;;;;-1.20;100.00;100240.19;20901584;28;20230;-59
2021/12/06 17:26:16;;;;;;;34.27;22.60;;;;;;;-1.20;100.00;100249.78;20930693;28;20245;-60
2021/12/06 17:36:24;;;;;;;31.73;20.47;;;;;;;-1.18;100.00;100255.88;20932892;28;20234;-63
2021/12/06 17:46:28;;;;;;;31.27;20.07;;;;;;;-1.11;100.00;100236.56;20932326;28;20245;-61
2021/12/06 17:56:32;;;;;;;33.03;20.40;;;;;;;-1.24;100.00;100243.78;20932307;28;20599;-59
2021/12/06 18:06:36;;;;;;;30.63;20.10;;;;;;;-1.30;100.00;100236.00;20928090;28;21004;-63
2021/12/06 18:16:40;;;;;;;29.40;19.27;;;;;;;-1.42;100.00;100241.44;20913914;28;20227;-62
2021/12/06 18:26:44;;;;;;;31.60;20.27;;;;;;;-1.54;100.00;100244.28;20925757;28;20227;-67
2021/12/06 18:36:48;;;;;;;29.67;18.63;;;;;;;-1.60;100.00;100229.56;20925475;28;20234;-61
2021/12/06 18:46:51;;;;;;;30.03;19.17;;;;;;;-1.71;100.00;100226.25;20923385;28;20972;-59
2021/12/06 18:56:54;;;;;;;28.83;18.50;;;;;;;-1.88;100.00;100250.03;20927215;28;20233;-61
2021/12/06 19:06:58;;;;;;;28.93;18.00;;;;;;;-2.01;100.00;100253.72;20923005;28;20234;-62
2021/12/06 19:17:02;;;;;;;27.37;18.23;;;;;;;-2.06;100.00;100259.91;20926176;28;20245;-63
2021/12/06 19:27:06;;;;;;;26.23;17.17;;;;;;;-2.06;100.00;100265.16;20922825;28;20238;-64
2021/12/06 19:37:11;;;;;;;27.13;18.27;;;;;;;-2.11;100.00;100266.94;20923183;28;20238;-62
2021/12/06 19:47:16;;;;;;;32.07;18.17;;;;;;;-2.10;100.00;100269.53;20925901;28;20259;-64
2021/12/06 19:57:20;;;;;;;24.00;16.07;;;;;;;-2.13;100.00;100284.38;20923242;28;20238;-62
2021/12/06 20:07:24;;;;;;;27.70;16.70;;;;;;;-2.15;100.00;100287.03;20925084;28;20288;-65
2021/12/06 20:17:27;;;;;;;28.17;17.57;;;;;;;-2.27;100.00;100290.66;20923160;28;20235;-66
2021/12/06 20:27:32;;;;;;;27.87;18.23;;;;;;;-2.41;100.00;100299.56;20927341;28;20230;-67
2021/12/06 20:37:36;;;;;;;26.90;16.70;;;;;;;-2.42;100.00;100303.94;20940145;28;20407;-68
2021/12/06 20:47:43;;;;;;;29.70;18.07;;;;;;;-2.50;100.00;100294.44;20939512;28;20234;-65
2021/12/06 20:57:56;;;;;;;28.23;17.47;;;;;;;-2.52;100.00;100286.63;20937470;28;20229;-61
2021/12/06 21:08:00;;;;;;;30.90;18.37;;;;;;;-2.59;100.00;100278.00;20932620;28;20231;-62
2021/12/06 21:27:59;;;;;;;28.90;18.33;;;;;;;-2.62;100.00;100264.97;21077435;27;20943;-63
2021/12/06 21:38:05;;;;;;;23.93;15.93;;;;;;;-2.58;100.00;100271.03;21068238;27;20228;-61
2021/12/06 21:48:08;;;;;;;24.83;15.13;;;;;;;-2.53;100.00;100270.06;21110840;27;20703;-61
2021/12/06 21:58:12;;;;;;;21.87;14.47;;;;;;;-2.49;100.00;100270.91;21045724;27;20233;-60
2021/12/06 22:08:16;;;;;;;22.90;15.33;;;;;;;-2.49;100.00;100288.34;21068148;27;20256;-62
2021/12/06 22:18:20;;;;;;;24.93;15.53;;;;;;;-2.46;100.00;100291.78;21029238;27;20241;-60
2021/12/06 22:28:24;;;;;;;24.03;15.00;;;;;;;-2.46;100.00;100278.72;21090531;27;20236;-61
2021/12/06 22:38:28;;;;;;;24.10;15.90;;;;;;;-2.50;100.00;100289.22;21007398;27;20676;-62
2021/12/06 22:48:31;;;;;;;22.73;15.43;;;;;;;-2.55;100.00;100277.09;21026093;27;20649;-61
2021/12/06 22:58:35;;;;;;;21.27;14.37;;;;;;;-2.54;100.00;100267.50;20980415;27;20227;-64
2021/12/06 23:08:38;;;;;;;27.93;17.70;;;;;;;-2.58;100.00;100271.91;20952658;28;20308;-68
2021/12/06 23:18:42;;;;;;;25.93;16.93;;;;;;;-2.67;100.00;100256.34;20982799;28;20254;-66
2021/12/06 23:28:46;;;;;;;26.87;17.93;;;;;;;-2.73;100.00;100240.72;20975295;28;20226;-68
2021/12/06 23:39:05;;;;;;;24.27;16.27;;;;;;;-2.74;100.00;100256.41;20988808;28;20278;-62
2021/12/06 23:49:12;;;;;;;23.63;14.83;;;;;;;-2.80;100.00;100248.66;20997116;28;20295;-66
